sensor_id;sensor_type;location;lat;lon;timestamp;temperature;humidity
67354;SHT30;54238;52.278;21.056;2023-04-15T00:00:39;12.56;63.46
67354;SHT30;54238;52.278;21.056;2023-04-15T00:03:14;12.53;63.58
67354;SHT30;54238;52.278;21.056;2023-04-15T00:06:02;12.52;63.61
67354;SHT30;54238;52.278;21.056;2023-04-15T00:08:32;12.51;63.59
67354;SHT30;54238;52.278;21.056;2023-04-15T00:11:03;12.52;63.67
67354;SHT30;54238;52.278;21.056;2023-04-15T00:13:32;12.51;63.67
67354;SHT30;54238;52.278;21.056;2023-04-15T00:16:03;12.52;63.66
67354;SHT30;54238;52.278;21.056;2023-04-15T00:18:38;12.49;63.70
67354;SHT30;54238;52.278;21.056;2023-04-15T00:21:10;12.49;63.73
67354;SHT30;54238;52.278;21.056;2023-04-15T00:23:39;12.47;63.67
67354;SHT30;54238;52.278;21.056;2023-04-15T00:26:15;12.48;64.03
67354;SHT30;54238;52.278;21.056;2023-04-15T00:28:42;12.46;64.23
67354;SHT30;54238;52.278;21.056;2023-04-15T00:31:09;12.46;64.25
67354;SHT30;54238;52.278;21.056;2023-04-15T00:33:41;12.46;64.16
67354;SHT30;54238;52.278;21.056;2023-04-15T00:36:08;12.46;64.21
67354;SHT30;54238;52.278;21.056;2023-04-15T00:38:39;12.46;64.21
67354;SHT30;54238;52.278;21.056;2023-04-15T00:41:08;12.46;64.20
67354;SHT30;54238;52.278;21.056;2023-04-15T00:43:39;12.47;64.16
67354;SHT30;54238;52.278;21.056;2023-04-15T00:46:09;12.46;64.25
67354;SHT30;54238;52.278;21.056;2023-04-15T00:48:44;12.46;64.30
67354;SHT30;54238;52.278;21.056;2023-04-15T00:51:14;12.46;64.80
67354;SHT30;54238;52.278;21.056;2023-04-15T00:53:41;12.43;65.71
67354;SHT30;54238;52.278;21.056;2023-04-15T00:56:09;12.36;66.16
67354;SHT30;54238;52.278;21.056;2023-04-15T00:58:40;12.30;66.43
67354;SHT30;54238;52.278;21.056;2023-04-15T01:01:14;12.26;66.81
67354;SHT30;54238;52.278;21.056;2023-04-15T01:03:50;12.21;67.01
67354;SHT30;54238;52.278;21.056;2023-04-15T01:06:18;12.20;66.87
67354;SHT30;54238;52.278;21.056;2023-04-15T01:08:47;12.19;66.88
67354;SHT30;54238;52.278;21.056;2023-04-15T01:11:14;12.19;66.89
67354;SHT30;54238;52.278;21.056;2023-04-15T01:13:42;12.19;66.84
67354;SHT30;54238;52.278;21.056;2023-04-15T01:16:12;12.21;66.63
67354;SHT30;54238;52.278;21.056;2023-04-15T01:18:44;12.21;66.93
67354;SHT30;54238;52.278;21.056;2023-04-15T01:21:14;12.19;66.97
67354;SHT30;54238;52.278;21.056;2023-04-15T01:23:48;12.16;67.43
67354;SHT30;54238;52.278;21.056;2023-04-15T01:26:18;12.15;67.64
67354;SHT30;54238;52.278;21.056;2023-04-15T01:28:51;12.15;68.22
67354;SHT30;54238;52.278;21.056;2023-04-15T01:31:21;12.08;68.69
67354;SHT30;54238;52.278;21.056;2023-04-15T01:33:51;12.02;69.05
67354;SHT30;54238;52.278;21.056;2023-04-15T01:36:19;11.98;69.56
67354;SHT30;54238;52.278;21.056;2023-04-15T01:38:46;11.95;69.85
67354;SHT30;54238;52.278;21.056;2023-04-15T01:41:20;11.93;69.99
67354;SHT30;54238;52.278;21.056;2023-04-15T01:43:56;11.92;70.25
67354;SHT30;54238;52.278;21.056;2023-04-15T01:46:28;11.90;70.18
67354;SHT30;54238;52.278;21.056;2023-04-15T01:48:58;11.86;70.34
67354;SHT30;54238;52.278;21.056;2023-04-15T01:51:27;11.84;70.22
67354;SHT30;54238;52.278;21.056;2023-04-15T01:54:04;11.82;70.67
67354;SHT30;54238;52.278;21.056;2023-04-15T01:56:36;11.78;70.91
67354;SHT30;54238;52.278;21.056;2023-04-15T01:59:04;11.77;71.12
67354;SHT30;54238;52.278;21.056;2023-04-15T02:01:31;11.72;71.48
67354;SHT30;54238;52.278;21.056;2023-04-15T02:04:01;11.68;71.71
67354;SHT30;54238;52.278;21.056;2023-04-15T02:06:35;11.66;71.74
67354;SHT30;54238;52.278;21.056;2023-04-15T02:09:05;11.65;71.75
67354;SHT30;54238;52.278;21.056;2023-04-15T02:11:56;11.66;71.93
67354;SHT30;54238;52.278;21.056;2023-04-15T02:14:23;11.63;72.20
67354;SHT30;54238;52.278;21.056;2023-04-15T02:16:52;11.60;72.29
67354;SHT30;54238;52.278;21.056;2023-04-15T02:19:24;11.57;72.54
67354;SHT30;54238;52.278;21.056;2023-04-15T02:21:53;11.52;72.77
67354;SHT30;54238;52.278;21.056;2023-04-15T02:24:26;11.47;72.93
67354;SHT30;54238;52.278;21.056;2023-04-15T02:26:56;11.41;72.96
67354;SHT30;54238;52.278;21.056;2023-04-15T02:29:23;11.39;72.98
67354;SHT30;54238;52.278;21.056;2023-04-15T02:31:53;11.35;73.10
67354;SHT30;54238;52.278;21.056;2023-04-15T02:34:20;11.32;73.67
67354;SHT30;54238;52.278;21.056;2023-04-15T02:36:47;11.30;73.26
67354;SHT30;54238;52.278;21.056;2023-04-15T02:39:22;11.31;73.29
67354;SHT30;54238;52.278;21.056;2023-04-15T02:41:54;11.30;73.43
67354;SHT30;54238;52.278;21.056;2023-04-15T02:44:26;11.29;73.43
67354;SHT30;54238;52.278;21.056;2023-04-15T02:46:55;11.29;73.42
67354;SHT30;54238;52.278;21.056;2023-04-15T02:49:24;11.27;73.56
67354;SHT30;54238;52.278;21.056;2023-04-15T02:51:56;11.28;73.48
67354;SHT30;54238;52.278;21.056;2023-04-15T02:54:26;11.28;73.66
67354;SHT30;54238;52.278;21.056;2023-04-15T02:56:58;11.27;73.55
67354;SHT30;54238;52.278;21.056;2023-04-15T02:59:28;11.28;73.73
67354;SHT30;54238;52.278;21.056;2023-04-15T03:05:40;11.26;73.83
67354;SHT30;54238;52.278;21.056;2023-04-15T03:08:08;11.27;73.90
67354;SHT30;54238;52.278;21.056;2023-04-15T03:10:40;11.25;73.96
67354;SHT30;54238;52.278;21.056;2023-04-15T03:13:10;11.25;74.03
67354;SHT30;54238;52.278;21.056;2023-04-15T03:15:40;11.22;74.10
67354;SHT30;54238;52.278;21.056;2023-04-15T03:18:09;11.21;74.14
67354;SHT30;54238;52.278;21.056;2023-04-15T03:20:38;11.20;74.26
67354;SHT30;54238;52.278;21.056;2023-04-15T03:23:06;11.18;74.23
67354;SHT30;54238;52.278;21.056;2023-04-15T03:25:38;11.19;74.49
67354;SHT30;54238;52.278;21.056;2023-04-15T03:28:06;11.16;74.70
67354;SHT30;54238;52.278;21.056;2023-04-15T03:30:33;11.13;74.77
67354;SHT30;54238;52.278;21.056;2023-04-15T03:33:05;11.10;74.81
67354;SHT30;54238;52.278;21.056;2023-04-15T03:35:34;11.09;74.87
67354;SHT30;54238;52.278;21.056;2023-04-15T03:38:03;11.07;74.82
67354;SHT30;54238;52.278;21.056;2023-04-15T03:43:34;11.09;74.93
67354;SHT30;54238;52.278;21.056;2023-04-15T03:46:01;11.09;74.93
67354;SHT30;54238;52.278;21.056;2023-04-15T03:48:29;11.09;75.14
67354;SHT30;54238;52.278;21.056;2023-04-15T03:50:59;11.08;75.17
67354;SHT30;54238;52.278;21.056;2023-04-15T03:53:32;11.07;75.13
67354;SHT30;54238;52.278;21.056;2023-04-15T03:56:01;11.08;75.29
67354;SHT30;54238;52.278;21.056;2023-04-15T03:58:33;11.07;75.20
67354;SHT30;54238;52.278;21.056;2023-04-15T04:01:01;11.07;75.18
67354;SHT30;54238;52.278;21.056;2023-04-15T04:03:31;11.06;75.22
67354;SHT30;54238;52.278;21.056;2023-04-15T04:06:01;11.07;75.25
67354;SHT30;54238;52.278;21.056;2023-04-15T04:08:30;11.08;75.13
67354;SHT30;54238;52.278;21.056;2023-04-15T04:11:00;11.08;75.17
67354;SHT30;54238;52.278;21.056;2023-04-15T04:13:30;11.09;75.29
67354;SHT30;54238;52.278;21.056;2023-04-15T04:15:59;11.09;75.32
67354;SHT30;54238;52.278;21.056;2023-04-15T04:18:33;11.09;75.32
67354;SHT30;54238;52.278;21.056;2023-04-15T04:21:02;11.10;75.37
67354;SHT30;54238;52.278;21.056;2023-04-15T04:23:32;11.10;75.31
67354;SHT30;54238;52.278;21.056;2023-04-15T04:26:04;11.11;75.49
67354;SHT30;54238;52.278;21.056;2023-04-15T04:28:36;11.09;75.72
67354;SHT30;54238;52.278;21.056;2023-04-15T04:31:08;11.06;75.81
67354;SHT30;54238;52.278;21.056;2023-04-15T04:33:39;11.08;75.86
67354;SHT30;54238;52.278;21.056;2023-04-15T04:36:08;11.08;76.07
67354;SHT30;54238;52.278;21.056;2023-04-15T04:38:38;11.08;76.09
67354;SHT30;54238;52.278;21.056;2023-04-15T04:41:13;11.07;76.34
67354;SHT30;54238;52.278;21.056;2023-04-15T04:43:40;11.06;76.54
67354;SHT30;54238;52.278;21.056;2023-04-15T04:46:08;11.02;76.69
67354;SHT30;54238;52.278;21.056;2023-04-15T04:48:38;11.01;76.75
67354;SHT30;54238;52.278;21.056;2023-04-15T04:51:07;11.00;76.89
67354;SHT30;54238;52.278;21.056;2023-04-15T04:53:39;11.01;76.91
67354;SHT30;54238;52.278;21.056;2023-04-15T04:56:11;11.02;76.89
67354;SHT30;54238;52.278;21.056;2023-04-15T04:58:43;11.02;77.07
67354;SHT30;54238;52.278;21.056;2023-04-15T05:01:10;11.00;77.29
67354;SHT30;54238;52.278;21.056;2023-04-15T05:03:37;10.98;77.38
67354;SHT30;54238;52.278;21.056;2023-04-15T05:06:07;10.97;77.38
67354;SHT30;54238;52.278;21.056;2023-04-15T05:08:37;10.97;77.48
67354;SHT30;54238;52.278;21.056;2023-04-15T05:11:06;10.95;77.61
67354;SHT30;54238;52.278;21.056;2023-04-15T05:13:37;10.95;77.57
67354;SHT30;54238;52.278;21.056;2023-04-15T05:16:04;10.96;77.66
67354;SHT30;54238;52.278;21.056;2023-04-15T05:18:37;10.97;77.63
67354;SHT30;54238;52.278;21.056;2023-04-15T05:23:57;10.97;77.88
67354;SHT30;54238;52.278;21.056;2023-04-15T05:26:33;10.96;77.98
67354;SHT30;54238;52.278;21.056;2023-04-15T05:29:02;10.95;77.94
67354;SHT30;54238;52.278;21.056;2023-04-15T05:31:34;10.98;77.97
67354;SHT30;54238;52.278;21.056;2023-04-15T05:34:08;10.98;78.03
67354;SHT30;54238;52.278;21.056;2023-04-15T05:36:38;10.97;78.18
67354;SHT30;54238;52.278;21.056;2023-04-15T05:39:05;10.95;78.27
67354;SHT30;54238;52.278;21.056;2023-04-15T05:41:33;10.95;78.29
67354;SHT30;54238;52.278;21.056;2023-04-15T05:44:02;10.98;78.40
67354;SHT30;54238;52.278;21.056;2023-04-15T05:46:35;10.98;78.33
67354;SHT30;54238;52.278;21.056;2023-04-15T05:49:04;10.99;78.47
67354;SHT30;54238;52.278;21.056;2023-04-15T05:51:36;10.98;78.44
67354;SHT30;54238;52.278;21.056;2023-04-15T05:54:10;10.99;78.49
67354;SHT30;54238;52.278;21.056;2023-04-15T05:56:37;10.99;78.50
67354;SHT30;54238;52.278;21.056;2023-04-15T05:59:09;10.99;78.55
67354;SHT30;54238;52.278;21.056;2023-04-15T06:01:45;10.99;78.55
67354;SHT30;54238;52.278;21.056;2023-04-15T06:04:16;10.98;78.52
67354;SHT30;54238;52.278;21.056;2023-04-15T06:06:43;10.98;78.58
67354;SHT30;54238;52.278;21.056;2023-04-15T06:09:12;10.98;78.61
67354;SHT30;54238;52.278;21.056;2023-04-15T06:11:42;10.97;78.62
67354;SHT30;54238;52.278;21.056;2023-04-15T06:14:12;10.97;78.64
67354;SHT30;54238;52.278;21.056;2023-04-15T06:16:39;10.96;78.69
67354;SHT30;54238;52.278;21.056;2023-04-15T06:19:11;10.96;78.80
67354;SHT30;54238;52.278;21.056;2023-04-15T06:21:41;10.94;78.79
67354;SHT30;54238;52.278;21.056;2023-04-15T06:24:12;10.96;78.80
67354;SHT30;54238;52.278;21.056;2023-04-15T06:26:52;10.98;78.70
67354;SHT30;54238;52.278;21.056;2023-04-15T06:29:19;10.99;78.72
67354;SHT30;54238;52.278;21.056;2023-04-15T06:31:50;11.00;78.71
67354;SHT30;54238;52.278;21.056;2023-04-15T06:34:20;10.99;78.63
67354;SHT30;54238;52.278;21.056;2023-04-15T06:36:49;10.98;78.73
67354;SHT30;54238;52.278;21.056;2023-04-15T06:39:16;10.98;78.71
67354;SHT30;54238;52.278;21.056;2023-04-15T06:41:48;10.98;78.58
67354;SHT30;54238;52.278;21.056;2023-04-15T06:44:18;10.99;78.56
67354;SHT30;54238;52.278;21.056;2023-04-15T06:46:47;10.99;78.61
67354;SHT30;54238;52.278;21.056;2023-04-15T06:49:17;10.97;78.70
67354;SHT30;54238;52.278;21.056;2023-04-15T06:51:44;10.97;78.70
67354;SHT30;54238;52.278;21.056;2023-04-15T06:54:13;10.97;78.68
67354;SHT30;54238;52.278;21.056;2023-04-15T06:56:40;10.99;78.70
67354;SHT30;54238;52.278;21.056;2023-04-15T06:59:11;11.02;78.75
67354;SHT30;54238;52.278;21.056;2023-04-15T07:01:40;11.04;78.71
67354;SHT30;54238;52.278;21.056;2023-04-15T07:04:09;11.07;78.65
67354;SHT30;54238;52.278;21.056;2023-04-15T07:06:36;11.10;78.61
67354;SHT30;54238;52.278;21.056;2023-04-15T07:09:04;11.13;78.60
67354;SHT30;54238;52.278;21.056;2023-04-15T07:12:59;11.18;78.60
67354;SHT30;54238;52.278;21.056;2023-04-15T07:15:29;11.19;78.58
67354;SHT30;54238;52.278;21.056;2023-04-15T07:18:01;11.18;78.65
67354;SHT30;54238;52.278;21.056;2023-04-15T07:20:28;11.17;78.60
67354;SHT30;54238;52.278;21.056;2023-04-15T07:22:58;11.19;78.61
67354;SHT30;54238;52.278;21.056;2023-04-15T07:25:25;11.19;78.58
67354;SHT30;54238;52.278;21.056;2023-04-15T07:27:54;11.20;78.61
67354;SHT30;54238;52.278;21.056;2023-04-15T07:30:24;11.21;78.52
67354;SHT30;54238;52.278;21.056;2023-04-15T07:32:53;11.22;78.65
67354;SHT30;54238;52.278;21.056;2023-04-15T07:35:23;11.22;78.66
67354;SHT30;54238;52.278;21.056;2023-04-15T07:38:12;11.22;78.60
67354;SHT30;54238;52.278;21.056;2023-04-15T07:41:01;11.20;78.64
67354;SHT30;54238;52.278;21.056;2023-04-15T07:43:30;11.23;78.49
67354;SHT30;54238;52.278;21.056;2023-04-15T07:45:58;11.26;78.41
67354;SHT30;54238;52.278;21.056;2023-04-15T07:48:26;11.30;78.31
67354;SHT30;54238;52.278;21.056;2023-04-15T07:50:53;11.36;78.25
67354;SHT30;54238;52.278;21.056;2023-04-15T07:53:22;11.40;78.10
67354;SHT30;54238;52.278;21.056;2023-04-15T07:55:52;11.46;78.01
67354;SHT30;54238;52.278;21.056;2023-04-15T07:58:19;11.51;77.94
67354;SHT30;54238;52.278;21.056;2023-04-15T08:00:46;11.55;77.80
67354;SHT30;54238;52.278;21.056;2023-04-15T08:03:22;11.58;77.65
67354;SHT30;54238;52.278;21.056;2023-04-15T08:05:49;11.60;77.54
67354;SHT30;54238;52.278;21.056;2023-04-15T08:08:16;11.63;77.54
67354;SHT30;54238;52.278;21.056;2023-04-15T08:10:48;11.66;77.41
67354;SHT30;54238;52.278;21.056;2023-04-15T08:13:20;11.71;77.25
67354;SHT30;54238;52.278;21.056;2023-04-15T08:16:12;11.76;77.17
67354;SHT30;54238;52.278;21.056;2023-04-15T08:18:45;11.80;77.02
67354;SHT30;54238;52.278;21.056;2023-04-15T08:21:20;11.82;76.84
67354;SHT30;54238;52.278;21.056;2023-04-15T08:23:51;11.83;76.71
67354;SHT30;54238;52.278;21.056;2023-04-15T08:26:22;11.87;76.69
67354;SHT30;54238;52.278;21.056;2023-04-15T08:28:49;11.90;76.72
67354;SHT30;54238;52.278;21.056;2023-04-15T08:31:18;11.95;76.79
67354;SHT30;54238;52.278;21.056;2023-04-15T08:33:55;12.00;76.82
67354;SHT30;54238;52.278;21.056;2023-04-15T08:36:28;12.07;76.77
67354;SHT30;54238;52.278;21.056;2023-04-15T08:39:00;12.13;76.62
67354;SHT30;54238;52.278;21.056;2023-04-15T08:41:28;12.16;76.63
67354;SHT30;54238;52.278;21.056;2023-04-15T08:44:04;12.22;76.52
67354;SHT30;54238;52.278;21.056;2023-04-15T08:46:52;12.28;76.18
67354;SHT30;54238;52.278;21.056;2023-04-15T08:49:53;12.32;75.94
67354;SHT30;54238;52.278;21.056;2023-04-15T08:52:24;12.33;75.80
67354;SHT30;54238;52.278;21.056;2023-04-15T08:54:59;12.35;75.67
67354;SHT30;54238;52.278;21.056;2023-04-15T08:57:31;12.33;75.71
67354;SHT30;54238;52.278;21.056;2023-04-15T08:59:59;12.33;75.63
67354;SHT30;54238;52.278;21.056;2023-04-15T09:02:30;12.32;75.73
67354;SHT30;54238;52.278;21.056;2023-04-15T09:05:00;12.34;75.64
67354;SHT30;54238;52.278;21.056;2023-04-15T09:07:50;12.36;75.75
67354;SHT30;54238;52.278;21.056;2023-04-15T09:10:19;12.39;75.81
67354;SHT30;54238;52.278;21.056;2023-04-15T09:12:54;12.42;75.64
67354;SHT30;54238;52.278;21.056;2023-04-15T09:15:25;12.45;75.66
67354;SHT30;54238;52.278;21.056;2023-04-15T09:18:02;12.51;75.70
67354;SHT30;54238;52.278;21.056;2023-04-15T09:20:30;12.55;75.60
67354;SHT30;54238;52.278;21.056;2023-04-15T09:23:12;12.58;75.46
67354;SHT30;54238;52.278;21.056;2023-04-15T09:25:41;12.58;75.27
67354;SHT30;54238;52.278;21.056;2023-04-15T09:28:14;12.61;75.34
67354;SHT30;54238;52.278;21.056;2023-04-15T09:30:43;12.64;75.31
67354;SHT30;54238;52.278;21.056;2023-04-15T09:33:13;12.65;75.11
67354;SHT30;54238;52.278;21.056;2023-04-15T09:35:54;12.59;75.04
67354;SHT30;54238;52.278;21.056;2023-04-15T09:38:26;12.51;75.10
67354;SHT30;54238;52.278;21.056;2023-04-15T09:40:54;12.45;75.05
67354;SHT30;54238;52.278;21.056;2023-04-15T09:43:37;12.42;75.23
67354;SHT30;54238;52.278;21.056;2023-04-15T09:46:08;12.40;75.38
67354;SHT30;54238;52.278;21.056;2023-04-15T09:48:37;12.37;75.65
67354;SHT30;54238;52.278;21.056;2023-04-15T09:51:04;12.36;75.72
67354;SHT30;54238;52.278;21.056;2023-04-15T09:53:33;12.38;75.85
67354;SHT30;54238;52.278;21.056;2023-04-15T09:56:02;12.41;75.86
67354;SHT30;54238;52.278;21.056;2023-04-15T09:58:55;12.46;75.85
67354;SHT30;54238;52.278;21.056;2023-04-15T10:01:25;12.50;75.90
67354;SHT30;54238;52.278;21.056;2023-04-15T10:04:12;12.55;75.91
67354;SHT30;54238;52.278;21.056;2023-04-15T10:06:43;12.63;75.80
67354;SHT30;54238;52.278;21.056;2023-04-15T10:09:10;12.70;75.69
67354;SHT30;54238;52.278;21.056;2023-04-15T10:11:38;12.76;75.71
67354;SHT30;54238;52.278;21.056;2023-04-15T10:14:06;12.80;75.58
67354;SHT30;54238;52.278;21.056;2023-04-15T10:16:35;12.82;75.54
67354;SHT30;54238;52.278;21.056;2023-04-15T10:19:11;12.89;75.50
67354;SHT30;54238;52.278;21.056;2023-04-15T10:21:42;12.93;75.28
67354;SHT30;54238;52.278;21.056;2023-04-15T10:24:12;12.98;75.24
67354;SHT30;54238;52.278;21.056;2023-04-15T10:26:44;13.01;75.04
67354;SHT30;54238;52.278;21.056;2023-04-15T10:29:12;13.02;74.92
67354;SHT30;54238;52.278;21.056;2023-04-15T10:31:45;13.01;74.96
67354;SHT30;54238;52.278;21.056;2023-04-15T10:34:16;13.03;75.00
67354;SHT30;54238;52.278;21.056;2023-04-15T10:36:44;13.04;74.81
67354;SHT30;54238;52.278;21.056;2023-04-15T10:44:47;12.95;74.87
67354;SHT30;54238;52.278;21.056;2023-04-15T10:47:20;12.94;75.04
67354;SHT30;54238;52.278;21.056;2023-04-15T10:49:56;12.94;75.05
67354;SHT30;54238;52.278;21.056;2023-04-15T10:52:28;12.97;74.90
67354;SHT30;54238;52.278;21.056;2023-04-15T10:55:12;13.00;74.97
67354;SHT30;54238;52.278;21.056;2023-04-15T10:57:43;13.01;75.08
67354;SHT30;54238;52.278;21.056;2023-04-15T11:00:12;13.00;75.02
67354;SHT30;54238;52.278;21.056;2023-04-15T11:08:21;13.02;75.36
67354;SHT30;54238;52.278;21.056;2023-04-15T11:14:40;13.11;75.31
67354;SHT30;54238;52.278;21.056;2023-04-15T11:17:12;13.16;75.18
67354;SHT30;54238;52.278;21.056;2023-04-15T11:19:54;13.21;74.78
67354;SHT30;54238;52.278;21.056;2023-04-15T11:22:22;13.23;74.49
67354;SHT30;54238;52.278;21.056;2023-04-15T11:24:52;13.25;74.30
67354;SHT30;54238;52.278;21.056;2023-04-15T11:27:27;13.28;74.30
67354;SHT30;54238;52.278;21.056;2023-04-15T11:29:56;13.28;74.21
67354;SHT30;54238;52.278;21.056;2023-04-15T11:32:26;13.28;74.22
67354;SHT30;54238;52.278;21.056;2023-04-15T11:34:55;13.28;74.23
67354;SHT30;54238;52.278;21.056;2023-04-15T11:37:31;13.27;74.26
67354;SHT30;54238;52.278;21.056;2023-04-15T11:40:01;13.28;74.32
67354;SHT30;54238;52.278;21.056;2023-04-15T11:42:32;13.27;74.14
67354;SHT30;54238;52.278;21.056;2023-04-15T11:45:09;13.27;74.11
67354;SHT30;54238;52.278;21.056;2023-04-15T11:47:39;13.26;73.99
67354;SHT30;54238;52.278;21.056;2023-04-15T11:50:18;13.24;74.12
67354;SHT30;54238;52.278;21.056;2023-04-15T11:52:52;13.18;74.04
67354;SHT30;54238;52.278;21.056;2023-04-15T11:55:23;13.15;74.19
67354;SHT30;54238;52.278;21.056;2023-04-15T12:01:06;13.03;74.44
67354;SHT30;54238;52.278;21.056;2023-04-15T12:14:25;12.87;75.12
67354;SHT30;54238;52.278;21.056;2023-04-15T12:19:44;13.13;75.07
67354;SHT30;54238;52.278;21.056;2023-04-15T12:22:17;13.21;74.62
67354;SHT30;54238;52.278;21.056;2023-04-15T12:24:53;13.29;74.34
67354;SHT30;54238;52.278;21.056;2023-04-15T12:27:25;13.34;73.94
67354;SHT30;54238;52.278;21.056;2023-04-15T12:30:02;13.37;73.82
67354;SHT30;54238;52.278;21.056;2023-04-15T12:32:37;13.37;73.27
67354;SHT30;54238;52.278;21.056;2023-04-15T12:35:05;13.37;73.10
67354;SHT30;54238;52.278;21.056;2023-04-15T12:37:33;13.37;73.20
67354;SHT30;54238;52.278;21.056;2023-04-15T12:40:00;13.39;73.43
67354;SHT30;54238;52.278;21.056;2023-04-15T12:42:30;13.43;73.30
67354;SHT30;54238;52.278;21.056;2023-04-15T12:44:57;13.45;73.11
67354;SHT30;54238;52.278;21.056;2023-04-15T12:47:27;13.47;72.67
67354;SHT30;54238;52.278;21.056;2023-04-15T12:49:56;13.55;71.97
67354;SHT30;54238;52.278;21.056;2023-04-15T12:52:24;13.61;71.38
67354;SHT30;54238;52.278;21.056;2023-04-15T12:54:56;13.69;71.17
67354;SHT30;54238;52.278;21.056;2023-04-15T12:57:27;13.74;70.82
67354;SHT30;54238;52.278;21.056;2023-04-15T12:59:58;13.77;71.00
67354;SHT30;54238;52.278;21.056;2023-04-15T13:02:25;13.81;70.86
67354;SHT30;54238;52.278;21.056;2023-04-15T13:04:55;13.82;70.91
67354;SHT30;54238;52.278;21.056;2023-04-15T13:07:24;13.80;71.04
67354;SHT30;54238;52.278;21.056;2023-04-15T13:09:54;13.78;70.94
67354;SHT30;54238;52.278;21.056;2023-04-15T13:12:24;13.79;70.83
67354;SHT30;54238;52.278;21.056;2023-04-15T13:14:59;13.84;70.85
67354;SHT30;54238;52.278;21.056;2023-04-15T13:17:29;13.91;70.74
67354;SHT30;54238;52.278;21.056;2023-04-15T13:19:58;13.98;70.60
67354;SHT30;54238;52.278;21.056;2023-04-15T13:22:31;14.04;70.68
67354;SHT30;54238;52.278;21.056;2023-04-15T13:25:00;14.08;70.51
67354;SHT30;54238;52.278;21.056;2023-04-15T13:27:28;14.10;70.27
67354;SHT30;54238;52.278;21.056;2023-04-15T13:29:57;14.13;69.92
67354;SHT30;54238;52.278;21.056;2023-04-15T13:32:27;14.15;69.33
67354;SHT30;54238;52.278;21.056;2023-04-15T13:34:54;14.15;69.19
67354;SHT30;54238;52.278;21.056;2023-04-15T13:37:27;14.18;69.26
67354;SHT30;54238;52.278;21.056;2023-04-15T13:39:57;14.24;68.70
67354;SHT30;54238;52.278;21.056;2023-04-15T13:42:27;14.28;68.54
67354;SHT30;54238;52.278;21.056;2023-04-15T13:44:56;14.34;68.16
67354;SHT30;54238;52.278;21.056;2023-04-15T13:47:23;14.35;67.83
67354;SHT30;54238;52.278;21.056;2023-04-15T13:49:55;14.38;67.71
67354;SHT30;54238;52.278;21.056;2023-04-15T13:52:25;14.35;67.52
67354;SHT30;54238;52.278;21.056;2023-04-15T13:54:57;14.29;67.49
67354;SHT30;54238;52.278;21.056;2023-04-15T13:57:24;14.18;67.32
67354;SHT30;54238;52.278;21.056;2023-04-15T13:59:53;14.08;67.52
67354;SHT30;54238;52.278;21.056;2023-04-15T14:02:23;13.98;67.81
67354;SHT30;54238;52.278;21.056;2023-04-15T14:04:56;13.92;68.21
67354;SHT30;54238;52.278;21.056;2023-04-15T14:07:23;13.88;68.54
67354;SHT30;54238;52.278;21.056;2023-04-15T14:09:54;13.90;68.55
67354;SHT30;54238;52.278;21.056;2023-04-15T14:12:21;13.98;68.57
67354;SHT30;54238;52.278;21.056;2023-04-15T14:14:55;14.11;68.61
67354;SHT30;54238;52.278;21.056;2023-04-15T14:17:25;14.26;68.59
67354;SHT30;54238;52.278;21.056;2023-04-15T14:19:52;14.45;68.33
67354;SHT30;54238;52.278;21.056;2023-04-15T14:22:22;14.51;67.76
67354;SHT30;54238;52.278;21.056;2023-04-15T14:24:54;14.52;67.60
67354;SHT30;54238;52.278;21.056;2023-04-15T14:27:21;14.51;67.45
67354;SHT30;54238;52.278;21.056;2023-04-15T14:29:51;14.48;67.15
67354;SHT30;54238;52.278;21.056;2023-04-15T14:32:25;14.40;66.95
67354;SHT30;54238;52.278;21.056;2023-04-15T14:34:53;14.36;66.56
67354;SHT30;54238;52.278;21.056;2023-04-15T14:37:22;14.37;66.40
67354;SHT30;54238;52.278;21.056;2023-04-15T14:39:49;14.35;66.14
67354;SHT30;54238;52.278;21.056;2023-04-15T14:42:19;14.33;66.22
67354;SHT30;54238;52.278;21.056;2023-04-15T14:44:48;14.33;66.20
67354;SHT30;54238;52.278;21.056;2023-04-15T14:47:16;14.31;66.47
67354;SHT30;54238;52.278;21.056;2023-04-15T14:49:43;14.29;66.51
67354;SHT30;54238;52.278;21.056;2023-04-15T14:52:12;14.25;66.81
67354;SHT30;54238;52.278;21.056;2023-04-15T14:54:39;14.21;66.81
67354;SHT30;54238;52.278;21.056;2023-04-15T14:57:08;14.21;66.73
67354;SHT30;54238;52.278;21.056;2023-04-15T14:59:35;14.19;66.95
67354;SHT30;54238;52.278;21.056;2023-04-15T15:02:02;14.17;67.15
67354;SHT30;54238;52.278;21.056;2023-04-15T15:04:31;14.17;67.21
67354;SHT30;54238;52.278;21.056;2023-04-15T15:07:04;14.21;67.05
67354;SHT30;54238;52.278;21.056;2023-04-15T15:09:34;14.19;67.08
67354;SHT30;54238;52.278;21.056;2023-04-15T15:12:03;14.20;66.94
67354;SHT30;54238;52.278;21.056;2023-04-15T15:14:30;14.16;66.96
67354;SHT30;54238;52.278;21.056;2023-04-15T15:17:00;14.13;66.97
67354;SHT30;54238;52.278;21.056;2023-04-15T15:19:30;14.14;66.98
67354;SHT30;54238;52.278;21.056;2023-04-15T15:21:59;14.15;66.67
67354;SHT30;54238;52.278;21.056;2023-04-15T15:24:34;14.15;66.51
67354;SHT30;54238;52.278;21.056;2023-04-15T15:27:01;14.12;66.16
67354;SHT30;54238;52.278;21.056;2023-04-15T15:29:28;14.06;66.13
67354;SHT30;54238;52.278;21.056;2023-04-15T15:31:56;14.06;65.97
67354;SHT30;54238;52.278;21.056;2023-04-15T15:34:22;14.21;66.01
67354;SHT30;54238;52.278;21.056;2023-04-15T15:36:52;14.36;65.62
67354;SHT30;54238;52.278;21.056;2023-04-15T15:39:22;14.56;65.26
67354;SHT30;54238;52.278;21.056;2023-04-15T15:41:49;14.75;64.39
67354;SHT30;54238;52.278;21.056;2023-04-15T15:44:19;14.88;63.92
67354;SHT30;54238;52.278;21.056;2023-04-15T15:46:53;14.89;63.29
67354;SHT30;54238;52.278;21.056;2023-04-15T15:49:20;14.89;63.32
67354;SHT30;54238;52.278;21.056;2023-04-15T15:51:54;14.98;62.86
67354;SHT30;54238;52.278;21.056;2023-04-15T15:54:21;15.16;62.47
67354;SHT30;54238;52.278;21.056;2023-04-15T15:56:53;15.46;61.98
67354;SHT30;54238;52.278;21.056;2023-04-15T15:59:25;15.81;61.12
67354;SHT30;54238;52.278;21.056;2023-04-15T16:01:58;16.14;60.07
67354;SHT30;54238;52.278;21.056;2023-04-15T16:04:26;16.40;59.41
67354;SHT30;54238;52.278;21.056;2023-04-15T16:06:53;16.63;59.11
67354;SHT30;54238;52.278;21.056;2023-04-15T16:09:23;16.80;58.00
67354;SHT30;54238;52.278;21.056;2023-04-15T16:11:54;16.71;57.08
67354;SHT30;54238;52.278;21.056;2023-04-15T16:14:28;16.44;57.35
67354;SHT30;54238;52.278;21.056;2023-04-15T16:16:57;16.25;57.89
67354;SHT30;54238;52.278;21.056;2023-04-15T16:19:27;16.17;58.65